sensor_id;sensor_type;location;lat;lon;timestamp;pressure;altitude;pressure_sealevel;temperature;humidity
71476;BME280;59286;59.274;17.974;2023-04-22T00:02:03;101341.63;;;5.21;69.32
71476;BME280;59286;59.274;17.974;2023-04-22T00:04:29;101337.84;;;5.12;69.38
71476;BME280;59286;59.274;17.974;2023-04-22T00:06:54;101324.00;;;5.06;69.45
71476;BME280;59286;59.274;17.974;2023-04-22T00:09:20;101331.25;;;5.04;69.60
71476;BME280;59286;59.274;17.974;2023-04-22T00:11:46;101329.22;;;5.06;69.80
71476;BME280;59286;59.274;17.974;2023-04-22T00:14:11;101332.06;;;5.05;69.09
71476;BME280;59286;59.274;17.974;2023-04-22T00:16:37;101316.63;;;4.98;69.64
71476;BME280;59286;59.274;17.974;2023-04-22T00:19:03;101321.81;;;4.98;69.86
71476;BME280;59286;59.274;17.974;2023-04-22T00:21:28;101320.75;;;4.94;69.50
71476;BME280;59286;59.274;17.974;2023-04-22T00:23:54;101324.66;;;4.97;69.61
71476;BME280;59286;59.274;17.974;2023-04-22T00:26:19;101324.91;;;4.95;69.43
71476;BME280;59286;59.274;17.974;2023-04-22T00:28:45;101332.69;;;4.95;69.39
71476;BME280;59286;59.274;17.974;2023-04-22T00:31:10;101324.09;;;4.94;69.07
71476;BME280;59286;59.274;17.974;2023-04-22T00:33:35;101319.16;;;4.93;69.40
71476;BME280;59286;59.274;17.974;2023-04-22T00:36:01;101318.06;;;4.89;69.61
71476;BME280;59286;59.274;17.974;2023-04-22T00:38:26;101316.50;;;4.88;69.63
71476;BME280;59286;59.274;17.974;2023-04-22T00:40:52;101311.75;;;4.85;69.44
71476;BME280;59286;59.274;17.974;2023-04-22T00:43:17;101323.19;;;4.84;69.63
71476;BME280;59286;59.274;17.974;2023-04-22T00:45:43;101310.91;;;4.79;69.33
71476;BME280;59286;59.274;17.974;2023-04-22T00:48:08;101303.91;;;4.80;69.47
71476;BME280;59286;59.274;17.974;2023-04-22T00:50:34;101299.09;;;4.72;69.41
71476;BME280;59286;59.274;17.974;2023-04-22T00:53:00;101290.25;;;4.68;69.67
71476;BME280;59286;59.274;17.974;2023-04-22T00:55:25;101292.84;;;4.68;69.62
71476;BME280;59286;59.274;17.974;2023-04-22T00:57:53;101287.72;;;4.73;69.46
71476;BME280;59286;59.274;17.974;2023-04-22T01:00:19;101284.03;;;4.69;69.04
71476;BME280;59286;59.274;17.974;2023-04-22T01:02:50;101294.47;;;4.74;69.35
71476;BME280;59286;59.274;17.974;2023-04-22T01:05:16;101289.75;;;4.71;69.37
71476;BME280;59286;59.274;17.974;2023-04-22T01:07:41;101285.56;;;4.70;68.96
71476;BME280;59286;59.274;17.974;2023-04-22T01:10:07;101287.41;;;4.69;69.54
71476;BME280;59286;59.274;17.974;2023-04-22T01:12:33;101289.75;;;4.71;69.19
71476;BME280;59286;59.274;17.974;2023-04-22T01:14:58;101291.25;;;4.67;69.38
71476;BME280;59286;59.274;17.974;2023-04-22T01:17:23;101281.81;;;4.61;69.59
71476;BME280;59286;59.274;17.974;2023-04-22T01:19:49;101284.91;;;4.58;69.69
71476;BME280;59286;59.274;17.974;2023-04-22T01:22:17;101288.03;;;4.60;69.67
71476;BME280;59286;59.274;17.974;2023-04-22T01:24:42;101287.72;;;4.56;69.41
71476;BME280;59286;59.274;17.974;2023-04-22T01:27:08;101274.03;;;4.61;69.30
71476;BME280;59286;59.274;17.974;2023-04-22T01:29:36;101284.09;;;4.57;69.06
71476;BME280;59286;59.274;17.974;2023-04-22T01:32:02;101269.81;;;4.55;69.25
71476;BME280;59286;59.274;17.974;2023-04-22T01:34:29;101281.25;;;4.59;69.12
71476;BME280;59286;59.274;17.974;2023-04-22T01:36:55;101278.91;;;4.57;69.05
71476;BME280;59286;59.274;17.974;2023-04-22T01:39:20;101275.53;;;4.57;69.06
71476;BME280;59286;59.274;17.974;2023-04-22T01:41:46;101253.59;;;4.48;68.73
71476;BME280;59286;59.274;17.974;2023-04-22T01:44:11;101266.19;;;4.56;68.75
71476;BME280;59286;59.274;17.974;2023-04-22T01:46:36;101270.75;;;4.49;68.94
71476;BME280;59286;59.274;17.974;2023-04-22T01:49:02;101259.75;;;4.42;69.56
71476;BME280;59286;59.274;17.974;2023-04-22T01:51:27;101260.69;;;4.36;69.56
71476;BME280;59286;59.274;17.974;2023-04-22T01:53:53;101261.13;;;4.33;69.44
71476;BME280;59286;59.274;17.974;2023-04-22T01:56:18;101261.31;;;4.26;69.42
71476;BME280;59286;59.274;17.974;2023-04-22T01:58:43;101271.53;;;4.33;69.60
71476;BME280;59286;59.274;17.974;2023-04-22T02:01:10;101264.47;;;4.28;69.74
71476;BME280;59286;59.274;17.974;2023-04-22T02:03:36;101265.47;;;4.27;69.46
71476;BME280;59286;59.274;17.974;2023-04-22T02:06:01;101259.34;;;4.33;69.15
71476;BME280;59286;59.274;17.974;2023-04-22T02:08:27;101273.66;;;4.36;69.22
71476;BME280;59286;59.274;17.974;2023-04-22T02:10:52;101255.63;;;4.29;69.47
71476;BME280;59286;59.274;17.974;2023-04-22T02:13:17;101247.31;;;4.27;68.95
71476;BME280;59286;59.274;17.974;2023-04-22T02:15:43;101248.09;;;4.28;69.45
71476;BME280;59286;59.274;17.974;2023-04-22T02:18:08;101252.66;;;4.21;69.43
71476;BME280;59286;59.274;17.974;2023-04-22T02:20:35;101240.06;;;4.13;69.83
71476;BME280;59286;59.274;17.974;2023-04-22T02:23:01;101242.13;;;4.11;69.87
71476;BME280;59286;59.274;17.974;2023-04-22T02:25:27;101237.88;;;4.05;70.42
71476;BME280;59286;59.274;17.974;2023-04-22T02:27:52;101241.97;;;4.01;70.55
71476;BME280;59286;59.274;17.974;2023-04-22T02:30:18;101229.69;;;3.96;70.75
71476;BME280;59286;59.274;17.974;2023-04-22T02:32:43;101236.22;;;3.99;70.72
71476;BME280;59286;59.274;17.974;2023-04-22T02:35:09;101231.28;;;3.97;70.38
71476;BME280;59286;59.274;17.974;2023-04-22T02:37:36;101225.75;;;3.93;70.50
71476;BME280;59286;59.274;17.974;2023-04-22T02:40:02;101226.78;;;3.92;70.81
71476;BME280;59286;59.274;17.974;2023-04-22T02:42:27;101229.38;;;3.92;70.88
71476;BME280;59286;59.274;17.974;2023-04-22T02:44:53;101234.09;;;3.95;70.85
71476;BME280;59286;59.274;17.974;2023-04-22T02:47:18;101230.63;;;3.90;71.18
71476;BME280;59286;59.274;17.974;2023-04-22T02:49:44;101222.28;;;3.88;71.14
71476;BME280;59286;59.274;17.974;2023-04-22T02:52:09;101226.22;;;3.90;71.29
71476;BME280;59286;59.274;17.974;2023-04-22T02:54:35;101220.72;;;3.87;72.09
71476;BME280;59286;59.274;17.974;2023-04-22T02:57:00;101227.81;;;3.91;72.51
71476;BME280;59286;59.274;17.974;2023-04-22T02:59:27;101215.22;;;3.83;72.56
71476;BME280;59286;59.274;17.974;2023-04-22T03:01:52;101205.78;;;3.77;73.30
71476;BME280;59286;59.274;17.974;2023-04-22T03:04:17;101209.72;;;3.80;73.61
71476;BME280;59286;59.274;17.974;2023-04-22T03:06:47;101225.59;;;3.83;73.87
71476;BME280;59286;59.274;17.974;2023-04-22T03:09:12;101211.78;;;3.78;73.33
71476;BME280;59286;59.274;17.974;2023-04-22T03:11:38;101214.13;;;3.79;74.21
71476;BME280;59286;59.274;17.974;2023-04-22T03:14:03;101214.69;;;3.81;73.83
71476;BME280;59286;59.274;17.974;2023-04-22T03:16:28;101210.19;;;3.77;73.61
71476;BME280;59286;59.274;17.974;2023-04-22T03:18:54;101210.50;;;3.80;73.47
71476;BME280;59286;59.274;17.974;2023-04-22T03:21:19;101205.78;;;3.77;73.87
71476;BME280;59286;59.274;17.974;2023-04-22T03:23:44;101194.56;;;3.72;74.43
71476;BME280;59286;59.274;17.974;2023-04-22T03:26:10;101204.53;;;3.80;74.63
71476;BME280;59286;59.274;17.974;2023-04-22T03:28:36;101195.34;;;3.72;74.64
71476;BME280;59286;59.274;17.974;2023-04-22T03:31:01;101201.16;;;3.79;74.61
71476;BME280;59286;59.274;17.974;2023-04-22T03:33:26;101209.81;;;3.85;74.78
71476;BME280;59286;59.274;17.974;2023-04-22T03:35:52;101200.13;;;3.80;74.66
71476;BME280;59286;59.274;17.974;2023-04-22T03:38:19;101203.94;;;3.89;74.34
71476;BME280;59286;59.274;17.974;2023-04-22T03:40:44;101204.47;;;3.91;73.71
71476;BME280;59286;59.274;17.974;2023-04-22T03:43:09;101199.81;;;3.93;73.53
71476;BME280;59286;59.274;17.974;2023-04-22T03:45:35;101190.72;;;3.91;72.97
71476;BME280;59286;59.274;17.974;2023-04-22T03:48:01;101187.66;;;3.94;72.53
71476;BME280;59286;59.274;17.974;2023-04-22T03:50:26;101188.50;;;4.00;72.63
71476;BME280;59286;59.274;17.974;2023-04-22T03:52:51;101182.00;;;3.97;72.53
71476;BME280;59286;59.274;17.974;2023-04-22T03:55:17;101174.06;;;4.04;72.12
71476;BME280;59286;59.274;17.974;2023-04-22T03:57:42;101180.91;;;4.10;72.13
71476;BME280;59286;59.274;17.974;2023-04-22T04:00:08;101178.91;;;4.17;72.01
71476;BME280;59286;59.274;17.974;2023-04-22T04:02:33;101180.34;;;4.24;71.68
71476;BME280;59286;59.274;17.974;2023-04-22T04:04:58;101174.44;;;4.29;71.62
71476;BME280;59286;59.274;17.974;2023-04-22T04:07:24;101177.41;;;4.37;71.30
71476;BME280;59286;59.274;17.974;2023-04-22T04:09:49;101164.97;;;4.39;71.48
71476;BME280;59286;59.274;17.974;2023-04-22T04:12:14;101158.28;;;4.43;71.30
71476;BME280;59286;59.274;17.974;2023-04-22T04:14:40;101161.78;;;4.54;70.90
71476;BME280;59286;59.274;17.974;2023-04-22T04:17:05;101171.56;;;4.68;71.09
71476;BME280;59286;59.274;17.974;2023-04-22T04:19:33;101164.16;;;4.77;70.69
71476;BME280;59286;59.274;17.974;2023-04-22T04:21:58;101165.06;;;4.87;70.12
71476;BME280;59286;59.274;17.974;2023-04-22T04:24:24;101162.34;;;4.99;69.85
71476;BME280;59286;59.274;17.974;2023-04-22T04:26:49;101160.72;;;5.15;69.81
71476;BME280;59286;59.274;17.974;2023-04-22T04:29:15;101170.47;;;5.29;69.37
71476;BME280;59286;59.274;17.974;2023-04-22T04:31:40;101163.53;;;5.40;69.60
71476;BME280;59286;59.274;17.974;2023-04-22T04:34:06;101163.72;;;5.60;68.65
71476;BME280;59286;59.274;17.974;2023-04-22T04:36:32;101162.63;;;5.82;68.69
71476;BME280;59286;59.274;17.974;2023-04-22T04:38:57;101161.25;;;6.02;67.97
71476;BME280;59286;59.274;17.974;2023-04-22T04:41:22;101162.72;;;6.29;66.94
71476;BME280;59286;59.274;17.974;2023-04-22T04:43:51;101155.31;;;6.58;66.35
71476;BME280;59286;59.274;17.974;2023-04-22T04:46:16;101161.69;;;6.87;65.12
71476;BME280;59286;59.274;17.974;2023-04-22T04:48:42;101160.47;;;7.10;65.10
71476;BME280;59286;59.274;17.974;2023-04-22T04:51:08;101155.56;;;7.43;64.27
71476;BME280;59286;59.274;17.974;2023-04-22T04:53:33;101161.09;;;7.72;64.34
71476;BME280;59286;59.274;17.974;2023-04-22T04:55:58;101150.34;;;7.99;63.13
71476;BME280;59286;59.274;17.974;2023-04-22T04:58:24;101157.91;;;8.30;62.62
71476;BME280;59286;59.274;17.974;2023-04-22T05:00:49;101150.28;;;8.49;61.23
71476;BME280;59286;59.274;17.974;2023-04-22T05:03:15;101155.13;;;8.86;62.02
71476;BME280;59286;59.274;17.974;2023-04-22T05:05:40;101159.41;;;9.15;61.32
71476;BME280;59286;59.274;17.974;2023-04-22T05:08:05;101151.47;;;9.30;60.67
71476;BME280;59286;59.274;17.974;2023-04-22T05:10:31;101163.31;;;9.56;58.96
71476;BME280;59286;59.274;17.974;2023-04-22T05:12:56;101151.94;;;9.71;59.18
71476;BME280;59286;59.274;17.974;2023-04-22T05:15:21;101153.56;;;9.96;57.83
71476;BME280;59286;59.274;17.974;2023-04-22T05:17:47;101151.88;;;10.10;58.89
71476;BME280;59286;59.274;17.974;2023-04-22T05:20:12;101146.41;;;10.35;58.52
71476;BME280;59286;59.274;17.974;2023-04-22T05:22:37;101148.28;;;10.53;56.93
71476;BME280;59286;59.274;17.974;2023-04-22T05:25:06;101154.41;;;10.67;55.82
71476;BME280;59286;59.274;17.974;2023-04-22T05:27:31;101146.31;;;10.87;56.48
71476;BME280;59286;59.274;17.974;2023-04-22T05:29:57;101151.19;;;11.12;55.32
71476;BME280;59286;59.274;17.974;2023-04-22T05:32:22;101148.34;;;11.27;54.02
71476;BME280;59286;59.274;17.974;2023-04-22T05:34:47;101145.50;;;11.42;54.04
71476;BME280;59286;59.274;17.974;2023-04-22T05:37:13;101135.72;;;11.48;53.96
71476;BME280;59286;59.274;17.974;2023-04-22T05:39:39;101131.75;;;11.64;54.19
71476;BME280;59286;59.274;17.974;2023-04-22T05:42:04;101131.38;;;11.89;53.90
71476;BME280;59286;59.274;17.974;2023-04-22T05:44:29;101133.53;;;12.01;52.06
71476;BME280;59286;59.274;17.974;2023-04-22T05:46:55;101132.28;;;12.12;52.28
71476;BME280;59286;59.274;17.974;2023-04-22T05:49:20;101132.78;;;12.27;52.23
71476;BME280;59286;59.274;17.974;2023-04-22T05:51:45;101121.41;;;12.45;51.59
71476;BME280;59286;59.274;17.974;2023-04-22T05:54:10;101125.34;;;12.70;51.22
71476;BME280;59286;59.274;17.974;2023-04-22T05:56:36;101127.56;;;12.90;51.12
71476;BME280;59286;59.274;17.974;2023-04-22T05:59:01;101123.06;;;13.04;51.22
71476;BME280;59286;59.274;17.974;2023-04-22T06:01:26;101118.28;;;13.28;49.79
71476;BME280;59286;59.274;17.974;2023-04-22T06:03:52;101115.47;;;13.47;49.76
71476;BME280;59286;59.274;17.974;2023-04-22T06:06:17;101125.00;;;13.56;48.68
71476;BME280;59286;59.274;17.974;2023-04-22T06:08:42;101114.41;;;13.70;49.03
71476;BME280;59286;59.274;17.974;2023-04-22T06:11:08;101114.50;;;13.65;48.82
71476;BME280;59286;59.274;17.974;2023-04-22T06:13:34;101120.81;;;13.86;49.92
71476;BME280;59286;59.274;17.974;2023-04-22T06:15:59;101109.47;;;14.08;49.32
71476;BME280;59286;59.274;17.974;2023-04-22T06:18:25;101109.88;;;14.32;48.09
71476;BME280;59286;59.274;17.974;2023-04-22T06:20:51;101103.25;;;14.51;46.98
71476;BME280;59286;59.274;17.974;2023-04-22T06:23:16;101100.50;;;14.65;47.61
71476;BME280;59286;59.274;17.974;2023-04-22T06:25:42;101101.13;;;14.79;47.51
71476;BME280;59286;59.274;17.974;2023-04-22T06:28:07;101098.03;;;14.86;47.56
71476;BME280;59286;59.274;17.974;2023-04-22T06:30:33;101098.50;;;14.96;47.29
71476;BME280;59286;59.274;17.974;2023-04-22T06:32:58;101099.25;;;15.31;46.12
71476;BME280;59286;59.274;17.974;2023-04-22T06:35:24;101084.34;;;15.43;46.40
71476;BME280;59286;59.274;17.974;2023-04-22T06:37:50;101090.34;;;15.70;45.45
71476;BME280;59286;59.274;17.974;2023-04-22T06:40:15;101084.81;;;15.92;44.98
71476;BME280;59286;59.274;17.974;2023-04-22T06:42:40;101078.63;;;16.17;44.90
71476;BME280;59286;59.274;17.974;2023-04-22T06:45:06;101076.34;;;16.36;43.48
71476;BME280;59286;59.274;17.974;2023-04-22T06:47:33;101083.66;;;16.39;43.26
71476;BME280;59286;59.274;17.974;2023-04-22T06:50:00;101075.34;;;16.49;44.10
71476;BME280;59286;59.274;17.974;2023-04-22T06:52:26;101075.97;;;16.46;44.14
71476;BME280;59286;59.274;17.974;2023-04-22T06:54:51;101074.56;;;16.48;43.82
71476;BME280;59286;59.274;17.974;2023-04-22T06:57:16;101071.22;;;16.60;43.11
71476;BME280;59286;59.274;17.974;2023-04-22T06:59:42;101072.25;;;16.68;42.18
71476;BME280;59286;59.274;17.974;2023-04-22T07:02:07;101064.06;;;16.81;42.46
71476;BME280;59286;59.274;17.974;2023-04-22T07:04:32;101064.56;;;16.95;42.16
71476;BME280;59286;59.274;17.974;2023-04-22T07:06:58;101074.41;;;17.27;42.55
71476;BME280;59286;59.274;17.974;2023-04-22T07:09:23;101065.59;;;17.35;42.42
71476;BME280;59286;59.274;17.974;2023-04-22T07:11:48;101069.63;;;17.54;42.14
71476;BME280;59286;59.274;17.974;2023-04-22T07:14:14;101062.06;;;17.43;41.04
71476;BME280;59286;59.274;17.974;2023-04-22T07:16:39;101055.59;;;17.53;41.11
71476;BME280;59286;59.274;17.974;2023-04-22T07:19:05;101065.78;;;17.63;40.72
71476;BME280;59286;59.274;17.974;2023-04-22T07:21:31;101057.28;;;17.58;41.24
71476;BME280;59286;59.274;17.974;2023-04-22T07:23:57;101053.13;;;17.81;40.33
71476;BME280;59286;59.274;17.974;2023-04-22T07:26:22;101049.56;;;17.77;39.68
71476;BME280;59286;59.274;17.974;2023-04-22T07:28:48;101051.03;;;17.86;39.46
71476;BME280;59286;59.274;17.974;2023-04-22T07:31:13;101046.47;;;18.23;40.03
71476;BME280;59286;59.274;17.974;2023-04-22T07:33:38;101044.91;;;18.22;38.86
71476;BME280;59286;59.274;17.974;2023-04-22T07:36:05;101040.25;;;18.31;39.48
71476;BME280;59286;59.274;17.974;2023-04-22T07:38:30;101042.69;;;18.24;40.03
71476;BME280;59286;59.274;17.974;2023-04-22T07:40:55;101040.03;;;18.36;39.03
71476;BME280;59286;59.274;17.974;2023-04-22T07:43:21;101030.84;;;18.46;38.75
71476;BME280;59286;59.274;17.974;2023-04-22T07:45:46;101024.84;;;18.61;38.95
71476;BME280;59286;59.274;17.974;2023-04-22T07:48:11;101032.47;;;18.62;39.20
71476;BME280;59286;59.274;17.974;2023-04-22T07:50:37;101024.53;;;18.50;38.38
71476;BME280;59286;59.274;17.974;2023-04-22T07:53:02;101028.69;;;18.63;38.78
71476;BME280;59286;59.274;17.974;2023-04-22T07:55:27;101033.09;;;18.71;38.13
71476;BME280;59286;59.274;17.974;2023-04-22T07:57:53;101017.59;;;18.73;38.16
71476;BME280;59286;59.274;17.974;2023-04-22T08:00:18;101023.69;;;18.74;36.88
71476;BME280;59286;59.274;17.974;2023-04-22T08:02:43;101016.38;;;18.71;38.02
71476;BME280;59286;59.274;17.974;2023-04-22T08:05:10;101021.13;;;18.77;38.69
71476;BME280;59286;59.274;17.974;2023-04-22T08:07:35;101022.03;;;18.97;38.40
71476;BME280;59286;59.274;17.974;2023-04-22T08:10:01;101010.00;;;18.87;37.40
71476;BME280;59286;59.274;17.974;2023-04-22T08:12:27;101019.38;;;18.97;38.02
71476;BME280;59286;59.274;17.974;2023-04-22T08:14:53;101018.09;;;18.91;37.31
71476;BME280;59286;59.274;17.974;2023-04-22T08:17:18;100996.25;;;18.97;38.34
71476;BME280;59286;59.274;17.974;2023-04-22T08:19:46;100988.69;;;18.99;37.25
71476;BME280;59286;59.274;17.974;2023-04-22T08:22:12;101010.81;;;19.03;37.30
71476;BME280;59286;59.274;17.974;2023-04-22T08:24:38;101008.50;;;19.02;37.26
71476;BME280;59286;59.274;17.974;2023-04-22T08:27:04;101003.50;;;19.00;37.76
71476;BME280;59286;59.274;17.974;2023-04-22T08:29:29;101005.13;;;19.17;38.60
71476;BME280;59286;59.274;17.974;2023-04-22T08:31:54;101009.03;;;19.07;38.55
71476;BME280;59286;59.274;17.974;2023-04-22T08:34:20;101012.75;;;19.18;37.79
71476;BME280;59286;59.274;17.974;2023-04-22T08:36:45;100993.28;;;19.30;37.56
71476;BME280;59286;59.274;17.974;2023-04-22T08:39:11;101001.81;;;19.36;37.05
71476;BME280;59286;59.274;17.974;2023-04-22T08:41:37;101011.31;;;19.37;37.69
71476;BME280;59286;59.274;17.974;2023-04-22T08:44:03;101001.13;;;19.54;39.23
71476;BME280;59286;59.274;17.974;2023-04-22T08:46:29;100993.22;;;19.58;37.94
71476;BME280;59286;59.274;17.974;2023-04-22T08:48:55;100987.22;;;19.61;38.77
71476;BME280;59286;59.274;17.974;2023-04-22T08:51:27;100991.59;;;19.38;35.54
71476;BME280;59286;59.274;17.974;2023-04-22T08:53:52;100993.41;;;19.34;36.39
71476;BME280;59286;59.274;17.974;2023-04-22T08:56:18;100979.72;;;19.19;36.17
71476;BME280;59286;59.274;17.974;2023-04-22T08:58:44;100980.13;;;19.06;36.20
71476;BME280;59286;59.274;17.974;2023-04-22T09:01:10;100982.47;;;19.07;37.29
71476;BME280;59286;59.274;17.974;2023-04-22T09:03:38;100984.59;;;19.17;38.14
71476;BME280;59286;59.274;17.974;2023-04-22T09:06:05;100969.69;;;19.28;37.28
71476;BME280;59286;59.274;17.974;2023-04-22T09:08:32;100972.38;;;19.44;35.23
71476;BME280;59286;59.274;17.974;2023-04-22T09:10:57;100956.94;;;19.34;37.48
71476;BME280;59286;59.274;17.974;2023-04-22T09:13:24;100970.94;;;19.47;36.49
71476;BME280;59286;59.274;17.974;2023-04-22T09:15:51;100952.56;;;19.42;38.45
71476;BME280;59286;59.274;17.974;2023-04-22T09:18:17;100959.47;;;19.30;38.08
71476;BME280;59286;59.274;17.974;2023-04-22T09:20:43;100951.19;;;19.32;37.03
71476;BME280;59286;59.274;17.974;2023-04-22T09:23:11;100957.88;;;19.42;36.19
71476;BME280;59286;59.274;17.974;2023-04-22T09:25:37;100965.25;;;19.33;35.62
71476;BME280;59286;59.274;17.974;2023-04-22T09:28:02;100948.75;;;19.27;36.02
71476;BME280;59286;59.274;17.974;2023-04-22T09:30:30;100953.34;;;19.42;36.09
71476;BME280;59286;59.274;17.974;2023-04-22T09:32:57;100946.31;;;19.50;36.28
71476;BME280;59286;59.274;17.974;2023-04-22T09:37:53;100948.38;;;19.41;33.44
71476;BME280;59286;59.274;17.974;2023-04-22T09:40:18;100946.56;;;19.45;33.93
71476;BME280;59286;59.274;17.974;2023-04-22T09:42:56;100947.25;;;19.42;34.22
71476;BME280;59286;59.274;17.974;2023-04-22T09:45:39;100938.41;;;19.22;34.95
71476;BME280;59286;59.274;17.974;2023-04-22T09:48:07;100940.72;;;19.23;34.80
71476;BME280;59286;59.274;17.974;2023-04-22T09:50:34;100944.56;;;19.26;36.38
71476;BME280;59286;59.274;17.974;2023-04-22T09:53:02;100937.28;;;19.23;35.95
71476;BME280;59286;59.274;17.974;2023-04-22T09:55:30;100936.03;;;19.33;36.39
71476;BME280;59286;59.274;17.974;2023-04-22T09:57:56;100930.34;;;19.34;35.38
71476;BME280;59286;59.274;17.974;2023-04-22T10:00:28;100929.84;;;19.44;37.36
71476;BME280;59286;59.274;17.974;2023-04-22T10:02:54;100922.00;;;19.51;36.05
71476;BME280;59286;59.274;17.974;2023-04-22T10:05:20;100929.31;;;19.54;36.11
71476;BME280;59286;59.274;17.974;2023-04-22T10:07:46;100920.72;;;19.61;34.74
71476;BME280;59286;59.274;17.974;2023-04-22T10:10:11;100916.41;;;19.56;33.63
71476;BME280;59286;59.274;17.974;2023-04-22T10:12:37;100909.78;;;19.47;33.27
71476;BME280;59286;59.274;17.974;2023-04-22T10:15:03;100911.16;;;19.41;33.24
71476;BME280;59286;59.274;17.974;2023-04-22T10:17:32;100901.00;;;19.46;34.57
71476;BME280;59286;59.274;17.974;2023-04-22T10:20:03;100898.59;;;19.57;33.89
71476;BME280;59286;59.274;17.974;2023-04-22T10:22:32;100902.94;;;19.65;32.96
71476;BME280;59286;59.274;17.974;2023-04-22T10:24:58;100910.19;;;19.49;33.52
71476;BME280;59286;59.274;17.974;2023-04-22T10:27:23;100891.97;;;19.51;35.98
71476;BME280;59286;59.274;17.974;2023-04-22T10:29:49;100893.84;;;19.66;36.80
71476;BME280;59286;59.274;17.974;2023-04-22T10:34:48;100885.22;;;19.88;35.30
71476;BME280;59286;59.274;17.974;2023-04-22T10:37:17;100882.81;;;19.83;35.48
71476;BME280;59286;59.274;17.974;2023-04-22T10:42:32;100872.56;;;19.66;36.14
71476;BME280;59286;59.274;17.974;2023-04-22T10:45:03;100868.88;;;19.70;36.57
71476;BME280;59286;59.274;17.974;2023-04-22T10:47:33;100875.28;;;19.69;35.43
71476;BME280;59286;59.274;17.974;2023-04-22T10:50:22;100875.94;;;19.63;34.73
71476;BME280;59286;59.274;17.974;2023-04-22T10:52:59;100869.09;;;19.62;36.63
71476;BME280;59286;59.274;17.974;2023-04-22T10:55:48;100863.84;;;19.65;33.47
71476;BME280;59286;59.274;17.974;2023-04-22T10:58:23;100865.94;;;19.75;33.60
71476;BME280;59286;59.274;17.974;2023-04-22T11:00:51;100861.91;;;19.66;33.92
71476;BME280;59286;59.274;17.974;2023-04-22T11:03:27;100853.44;;;19.60;35.32
71476;BME280;59286;59.274;17.974;2023-04-22T11:06:13;100842.31;;;19.55;35.78
71476;BME280;59286;59.274;17.974;2023-04-22T11:08:43;100834.50;;;19.62;35.59
71476;BME280;59286;59.274;17.974;2023-04-22T11:11:09;100841.91;;;19.72;36.14
71476;BME280;59286;59.274;17.974;2023-04-22T11:13:35;100838.28;;;19.80;36.25
71476;BME280;59286;59.274;17.974;2023-04-22T11:16:01;100838.34;;;19.83;34.60
71476;BME280;59286;59.274;17.974;2023-04-22T11:18:26;100842.47;;;19.81;34.24
71476;BME280;59286;59.274;17.974;2023-04-22T11:20:52;100843.47;;;19.73;34.83
71476;BME280;59286;59.274;17.974;2023-04-22T11:23:20;100827.03;;;19.67;34.19
71476;BME280;59286;59.274;17.974;2023-04-22T11:25:46;100827.22;;;19.59;32.90
71476;BME280;59286;59.274;17.974;2023-04-22T11:28:12;100825.41;;;19.63;35.65
71476;BME280;59286;59.274;17.974;2023-04-22T11:30:37;100822.25;;;19.57;34.25
71476;BME280;59286;59.274;17.974;2023-04-22T11:33:03;100806.22;;;19.54;34.01
71476;BME280;59286;59.274;17.974;2023-04-22T11:35:32;100804.03;;;19.59;35.47
71476;BME280;59286;59.274;17.974;2023-04-22T11:38:03;100817.28;;;19.75;36.14
71476;BME280;59286;59.274;17.974;2023-04-22T11:40:31;100816.03;;;19.69;35.29
71476;BME280;59286;59.274;17.974;2023-04-22T11:43:00;100803.63;;;19.76;35.44
71476;BME280;59286;59.274;17.974;2023-04-22T11:45:26;100806.06;;;19.85;36.81
71476;BME280;59286;59.274;17.974;2023-04-22T11:47:54;100808.38;;;19.86;34.40
71476;BME280;59286;59.274;17.974;2023-04-22T11:50:25;100804.38;;;19.77;34.91
71476;BME280;59286;59.274;17.974;2023-04-22T11:52:53;100795.72;;;19.80;35.11
71476;BME280;59286;59.274;17.974;2023-04-22T11:55:26;100800.63;;;19.78;34.41
71476;BME280;59286;59.274;17.974;2023-04-22T11:58:15;100791.44;;;19.75;35.09
71476;BME280;59286;59.274;17.974;2023-04-22T12:00:46;100791.09;;;19.77;34.96
71476;BME280;59286;59.274;17.974;2023-04-22T12:05:39;100777.94;;;19.84;35.87
71476;BME280;59286;59.274;17.974;2023-04-22T12:08:07;100775.53;;;19.79;34.81
71476;BME280;59286;59.274;17.974;2023-04-22T12:10:38;100792.94;;;19.73;35.30
71476;BME280;59286;59.274;17.974;2023-04-22T12:13:04;100781.44;;;19.69;35.74
71476;BME280;59286;59.274;17.974;2023-04-22T12:15:37;100779.88;;;19.68;35.09
71476;BME280;59286;59.274;17.974;2023-04-22T12:18:03;100776.25;;;19.76;34.71
71476;BME280;59286;59.274;17.974;2023-04-22T12:20:35;100774.44;;;19.80;34.35
71476;BME280;59286;59.274;17.974;2023-04-22T12:23:02;100774.75;;;19.97;34.37
71476;BME280;59286;59.274;17.974;2023-04-22T12:25:27;100772.78;;;20.13;34.60
71476;BME280;59286;59.274;17.974;2023-04-22T12:27:54;100770.06;;;20.10;33.93
71476;BME280;59286;59.274;17.974;2023-04-22T12:30:20;100770.06;;;20.10;34.71
71476;BME280;59286;59.274;17.974;2023-04-22T12:32:47;100769.84;;;19.99;34.66
71476;BME280;59286;59.274;17.974;2023-04-22T12:35:13;100771.63;;;19.92;34.29
71476;BME280;59286;59.274;17.974;2023-04-22T12:37:38;100766.41;;;19.76;34.23
71476;BME280;59286;59.274;17.974;2023-04-22T12:40:04;100775.84;;;19.74;34.15
71476;BME280;59286;59.274;17.974;2023-04-22T12:42:30;100762.34;;;19.63;35.06
71476;BME280;59286;59.274;17.974;2023-04-22T12:44:56;100773.88;;;19.71;34.54
71476;BME280;59286;59.274;17.974;2023-04-22T12:47:21;100774.22;;;19.69;35.04
71476;BME280;59286;59.274;17.974;2023-04-22T12:49:46;100765.75;;;19.64;34.56
71476;BME280;59286;59.274;17.974;2023-04-22T12:52:12;100769.25;;;19.68;34.84